createdAt,value
2023-05-25T00:03:06.877Z,13.20
2023-05-25T00:07:59.689Z,12.10
2023-05-25T00:12:52.878Z,14.57
2023-05-25T00:17:49.583Z,14.32
2023-05-25T00:22:45.545Z,14.77
2023-05-25T00:27:38.642Z,13.50
2023-05-25T00:32:32.728Z,18.05
2023-05-25T00:37:26.568Z,17.08
2023-05-25T00:42:19.624Z,12.65
2023-05-25T00:47:12.347Z,13.68
2023-05-25T00:52:06.494Z,13.00
2023-05-25T00:57:06.626Z,12.05
2023-05-25T01:02:04.978Z,11.52
2023-05-25T01:06:58.760Z,15.48
2023-05-25T01:11:52.866Z,12.60
2023-05-25T01:16:47.120Z,10.25
2023-05-25T01:21:58.532Z,10.77
2023-05-25T01:27:17.681Z,10.25
2023-05-25T01:32:11.467Z,9.50
2023-05-25T01:37:05.994Z,9.38
2023-05-25T01:42:03.102Z,9.45
2023-05-25T01:47:04.352Z,14.90
2023-05-25T01:52:21.356Z,9.30
2023-05-25T01:57:16.611Z,13.30
2023-05-25T02:02:11.171Z,10.45
2023-05-25T02:07:07.824Z,12.60
2023-05-25T02:12:01.471Z,11.18
2023-05-25T02:16:54.876Z,9.43
2023-05-25T02:21:48.335Z,10.07
2023-05-25T02:26:42.437Z,10.77
2023-05-25T02:31:36.814Z,12.10
2023-05-25T02:36:30.430Z,11.43
2023-05-25T02:41:24.756Z,11.02
2023-05-25T02:46:18.894Z,9.95
2023-05-25T02:51:12.163Z,11.88
2023-05-25T02:56:07.025Z,12.60
2023-05-25T03:01:01.552Z,8.63
2023-05-25T03:05:54.987Z,11.30
2023-05-25T03:10:48.347Z,12.35
2023-05-25T03:15:43.414Z,11.02
2023-05-25T03:20:36.836Z,14.85
2023-05-25T03:25:30.541Z,10.77
2023-05-25T03:30:25.735Z,11.70
2023-05-25T03:35:19.359Z,8.25
2023-05-25T03:40:13.343Z,10.68
2023-05-25T03:45:10.230Z,12.27
2023-05-25T03:50:08.897Z,11.48
2023-05-25T03:55:02.694Z,15.40
2023-05-25T03:59:55.910Z,10.27
2023-05-25T04:04:52.652Z,12.30
2023-05-25T04:09:45.777Z,16.70
2023-05-25T04:14:38.580Z,11.68
2023-05-25T04:19:32.199Z,10.27
2023-05-25T04:24:24.908Z,12.23
2023-05-25T04:29:19.126Z,10.95
2023-05-25T04:34:34.304Z,9.63
2023-05-25T04:39:33.498Z,12.45
2023-05-25T04:44:31.696Z,16.20
2023-05-25T04:49:25.941Z,13.52
2023-05-25T04:54:19.719Z,13.32
2023-05-25T04:59:13.721Z,15.10
2023-05-25T05:04:08.073Z,12.68
2023-05-25T05:09:02.880Z,12.68
2023-05-25T05:13:57.053Z,14.88
2023-05-25T05:18:51.076Z,11.82
2023-05-25T05:23:44.816Z,15.00
2023-05-25T05:28:39.370Z,11.95
2023-05-25T05:33:33.512Z,16.98
2023-05-25T05:38:28.567Z,15.10
2023-05-25T05:43:21.342Z,12.68
2023-05-25T05:48:14.878Z,13.93
2023-05-25T05:53:10.266Z,17.75
2023-05-25T05:58:05.170Z,14.65
2023-05-25T06:02:59.152Z,20.40
2023-05-25T06:07:54.941Z,15.00
2023-05-25T06:12:49.576Z,18.98
2023-05-25T06:17:44.053Z,15.27
2023-05-25T06:22:39.060Z,16.02
2023-05-25T06:27:32.263Z,19.90
2023-05-25T06:32:25.876Z,16.90
2023-05-25T06:37:19.204Z,16.38
2023-05-25T06:42:12.449Z,16.40
2023-05-25T06:47:16.416Z,19.17
2023-05-25T06:52:11.045Z,18.95
2023-05-25T06:57:05.654Z,21.00
2023-05-25T07:01:59.701Z,23.05
2023-05-25T07:06:53.756Z,21.48
2023-05-25T07:11:48.848Z,19.05
2023-05-25T07:16:42.049Z,22.83
2023-05-25T07:21:34.925Z,22.55
2023-05-25T07:26:29.009Z,21.85
2023-05-25T07:31:21.770Z,28.98
2023-05-25T07:36:15.635Z,27.38
2023-05-25T07:41:09.099Z,33.22
2023-05-25T07:46:02.978Z,27.73
2023-05-25T07:50:56.173Z,24.25
2023-05-25T07:55:49.951Z,24.13
2023-05-25T08:00:44.812Z,26.15
2023-05-25T08:05:38.447Z,24.02
2023-05-25T08:10:32.721Z,22.48
2023-05-25T08:15:27.250Z,25.08
2023-05-25T08:20:21.507Z,31.58
2023-05-25T08:25:14.694Z,27.58
2023-05-25T08:30:09.375Z,29.33
2023-05-25T08:35:05.121Z,25.13
2023-05-25T08:40:04.832Z,30.33
2023-05-25T08:44:59.617Z,22.65
2023-05-25T08:49:54.288Z,25.80
2023-05-25T08:54:48.501Z,25.77
2023-05-25T08:59:53.284Z,27.10
2023-05-25T09:04:47.561Z,24.83
2023-05-25T09:09:41.006Z,29.65
2023-05-25T09:14:36.534Z,22.45
2023-05-25T09:19:29.666Z,21.42
2023-05-25T09:24:23.071Z,21.58
2023-05-25T09:29:20.255Z,21.77
2023-05-25T09:34:15.069Z,21.58
2023-05-25T09:39:11.266Z,20.63
2023-05-25T09:44:11.745Z,21.48
2023-05-25T09:49:06.832Z,23.25
2023-05-25T09:54:09.197Z,23.23
2023-05-25T09:59:02.886Z,21.25
2023-05-25T10:04:04.379Z,19.02
2023-05-25T10:08:58.860Z,19.67
2023-05-25T10:13:54.691Z,19.20
2023-05-25T10:19:05.555Z,18.98
2023-05-25T10:24:05.905Z,14.55
2023-05-25T10:29:21.126Z,19.17
2023-05-25T10:34:14.717Z,14.93
2023-05-25T10:39:09.510Z,16.52
2023-05-25T10:44:03.470Z,14.05
2023-05-25T10:49:03.095Z,14.70
2023-05-25T10:54:00.449Z,12.30
2023-05-25T10:58:54.221Z,12.23
2023-05-25T11:04:20.074Z,12.85
2023-05-25T11:09:32.173Z,12.02
2023-05-25T11:14:28.633Z,14.85
2023-05-25T11:19:23.296Z,9.80
2023-05-25T11:24:18.092Z,11.00
2023-05-25T11:29:16.725Z,9.77
2023-05-25T11:34:12.018Z,9.85
2023-05-25T11:39:20.612Z,12.20
2023-05-25T11:44:16.116Z,9.93
2023-05-25T11:49:10.722Z,9.85
2023-05-25T11:54:04.726Z,10.10
2023-05-25T11:58:58.593Z,9.27
2023-05-25T12:03:57.571Z,8.27
2023-05-25T12:08:51.013Z,11.95
2023-05-25T12:13:44.968Z,9.40
2023-05-25T12:18:38.518Z,11.77
2023-05-25T12:23:31.918Z,8.27
2023-05-25T12:28:25.933Z,8.45
2023-05-25T12:33:20.280Z,9.20
2023-05-25T12:38:17.923Z,11.38
2023-05-25T12:43:31.250Z,9.20
2023-05-25T12:48:28.538Z,6.68
2023-05-25T12:53:22.472Z,14.20
2023-05-25T12:58:28.749Z,7.00
2023-05-25T13:03:23.010Z,9.20
2023-05-25T13:08:17.802Z,8.63
2023-05-25T13:13:12.361Z,6.80
2023-05-25T13:18:06.492Z,9.05
2023-05-25T13:22:59.366Z,8.07
2023-05-25T13:27:54.746Z,8.27
2023-05-25T13:32:51.158Z,8.15
2023-05-25T13:37:45.329Z,10.80
2023-05-25T13:42:38.968Z,12.75
2023-05-25T13:47:32.453Z,10.98
2023-05-25T13:52:28.269Z,7.25
2023-05-25T13:57:23.305Z,13.98
2023-05-25T14:02:17.023Z,9.15
2023-05-25T14:07:10.865Z,9.98
2023-05-25T14:12:04.336Z,9.55
2023-05-25T14:16:57.471Z,10.95
2023-05-25T14:22:03.908Z,6.72
2023-05-25T14:27:05.466Z,7.88
2023-05-25T14:31:59.184Z,12.32
2023-05-25T14:36:52.646Z,8.45
2023-05-25T14:41:46.131Z,7.47
2023-05-25T14:46:39.679Z,8.57
2023-05-25T14:51:32.731Z,8.05
2023-05-25T14:56:27.074Z,8.60
2023-05-25T15:01:22.487Z,7.18
2023-05-25T15:06:17.896Z,19.70
2023-05-25T15:11:11.515Z,10.43
2023-05-25T15:16:06.823Z,11.15
2023-05-25T15:20:59.601Z,14.32
2023-05-25T15:25:53.754Z,10.50
2023-05-25T15:30:47.216Z,14.63
2023-05-25T15:35:40.222Z,10.82
2023-05-25T15:40:33.154Z,11.07
2023-05-25T15:45:26.820Z,10.60
2023-05-25T15:50:20.001Z,11.18
2023-05-25T15:55:12.720Z,13.35
2023-05-25T16:00:08.345Z,9.43
2023-05-25T16:05:02.288Z,10.35
2023-05-25T16:09:55.943Z,13.32
2023-05-25T16:14:49.061Z,11.30
2023-05-25T16:19:41.932Z,13.57
2023-05-25T16:24:35.653Z,12.73
2023-05-25T16:29:29.002Z,11.35
2023-05-25T16:34:22.990Z,9.45
2023-05-25T16:39:16.760Z,9.18
2023-05-25T16:44:13.386Z,9.57
2023-05-25T16:49:09.142Z,13.20
2023-05-25T16:54:03.061Z,12.13
2023-05-25T16:58:57.126Z,11.55
2023-05-25T17:03:51.440Z,14.00
2023-05-25T17:08:44.746Z,14.50
2023-05-25T17:13:38.598Z,11.93
2023-05-25T17:18:32.646Z,11.15
2023-05-25T17:23:26.009Z,11.38
2023-05-25T17:28:19.883Z,11.25
2023-05-25T17:33:13.419Z,12.55
2023-05-25T17:38:06.969Z,13.23
2023-05-25T17:43:01.279Z,12.65
2023-05-25T17:47:54.433Z,10.05
2023-05-25T17:52:47.661Z,8.13
2023-05-25T17:57:41.283Z,8.35
2023-05-25T18:02:34.981Z,8.25
2023-05-25T18:07:28.338Z,10.27
2023-05-25T18:12:21.447Z,8.82
2023-05-25T18:17:14.765Z,13.57
2023-05-25T18:22:11.674Z,10.80
2023-05-25T18:27:05.015Z,8.57
2023-05-25T18:31:58.469Z,9.40
2023-05-25T18:36:51.805Z,9.90
2023-05-25T18:41:44.615Z,10.20
2023-05-25T18:46:42.160Z,8.82
2023-05-25T18:51:35.364Z,11.82
2023-05-25T18:56:27.693Z,8.85
2023-05-25T19:01:21.304Z,8.40
2023-05-25T19:06:15.175Z,9.63
2023-05-25T19:11:08.471Z,8.98
2023-05-25T19:16:05.024Z,8.52
2023-05-25T19:20:59.608Z,9.95
2023-05-25T19:25:53.921Z,9.65
2023-05-25T19:30:47.970Z,8.10
2023-05-25T19:35:42.431Z,12.85
2023-05-25T19:40:36.917Z,10.73
2023-05-25T19:45:31.213Z,9.63
2023-05-25T19:50:28.404Z,11.10
2023-05-25T19:55:21.790Z,10.05
2023-05-25T20:00:25.359Z,8.85
2023-05-25T20:05:20.472Z,11.50
2023-05-25T20:10:14.356Z,9.73
2023-05-25T20:15:09.080Z,11.45
2023-05-25T20:20:04.740Z,10.13
2023-05-25T20:25:02.018Z,9.05
2023-05-25T20:29:56.198Z,10.43
2023-05-25T20:34:49.823Z,8.18
2023-05-25T20:39:43.670Z,10.05
2023-05-25T20:44:37.407Z,9.98
2023-05-25T20:49:30.980Z,11.70
2023-05-25T20:54:24.637Z,9.75
2023-05-25T20:59:19.370Z,7.75
2023-05-25T21:04:12.649Z,10.07
2023-05-25T21:09:06.914Z,10.40
2023-05-25T21:14:00.789Z,15.35
2023-05-25T21:18:53.871Z,12.15
2023-05-25T21:23:47.608Z,11.65
2023-05-25T21:28:40.500Z,10.95
2023-05-25T21:33:36.307Z,14.82
2023-05-25T21:38:29.153Z,10.50
2023-05-25T21:43:22.932Z,11.57
2023-05-25T21:48:15.608Z,11.63
2023-05-25T21:53:11.971Z,12.13
2023-05-25T21:58:06.125Z,11.52
2023-05-25T22:03:00.932Z,15.35
2023-05-25T22:07:55.824Z,11.68
2023-05-25T22:12:49.651Z,10.73
2023-05-25T22:17:43.312Z,13.00
2023-05-25T22:22:38.077Z,14.77
2023-05-25T22:27:32.314Z,13.07
2023-05-25T22:32:27.429Z,17.02
2023-05-25T22:37:20.581Z,11.73
2023-05-25T22:42:14.469Z,12.88
2023-05-25T22:47:07.908Z,12.90
2023-05-25T22:52:01.631Z,14.07
2023-05-25T22:56:55.824Z,12.63
2023-05-25T23:01:48.994Z,12.70
2023-05-25T23:06:42.900Z,15.35
2023-05-25T23:11:36.742Z,10.82
2023-05-25T23:16:30.426Z,14.77
2023-05-25T23:21:23.813Z,14.65
2023-05-25T23:26:17.547Z,10.40
2023-05-25T23:31:11.516Z,15.15
2023-05-25T23:36:05.766Z,11.20
2023-05-25T23:40:59.330Z,11.68
2023-05-25T23:45:51.868Z,15.20
2023-05-25T23:50:46.433Z,18.98
2023-05-25T23:55:39.951Z,14.23
